Time;durP1;ratioP1;P1;durP2;ratioP2;P2;SDS_P1;SDS_P2;PMS_P1;PMS_P2;Temp;Humidity;BMP_temperature;BMP_pressure;BME280_temperature;BME280_humidity;BME280_pressure;Samples;Min_cycle;Max_cycle;Signal;HPM_P1;HPM_P2
2022/10/25 00:00:16;;;;;;;5.33;2.90;;;15.30;99.90;;;;;;5107272;28;20488;-71
2022/10/25 00:02:43;;;;;;;6.73;3.23;;;15.30;99.90;;;;;;5108180;28;20452;-71
2022/10/25 00:05:13;;;;;;;7.43;3.63;;;15.30;99.90;;;;;;5108231;28;20454;-71
2022/10/25 00:07:40;;;;;;;6.40;3.37;;;15.20;99.90;;;;;;5108165;28;20476;-72
2022/10/25 00:10:08;;;;;;;6.97;3.90;;;15.10;99.90;;;;;;5107277;28;20452;-72
2022/10/25 00:12:40;;;;;;;10.03;3.50;;;15.20;99.90;;;;;;5107529;28;20464;-71
2022/10/25 00:15:07;;;;;;;5.63;3.70;;;15.10;99.90;;;;;;5105779;28;20465;-72
2022/10/25 00:17:36;;;;;;;7.80;4.20;;;15.10;99.90;;;;;;5104516;28;20536;-73
2022/10/25 00:20:03;;;;;;;7.33;3.10;;;15.10;99.90;;;;;;5105454;28;20556;-71
2022/10/25 00:22:29;;;;;;;7.13;3.70;;;15.10;99.90;;;;;;5105537;28;20525;-71
2022/10/25 00:24:56;;;;;;;5.70;3.37;;;15.10;99.90;;;;;;5105524;28;20463;-72
2022/10/25 00:27:23;;;;;;;3.63;2.90;;;15.10;99.90;;;;;;5103446;28;20463;-72
2022/10/25 00:29:52;;;;;;;6.23;3.17;;;15.10;99.90;;;;;;5103627;28;20481;-72
2022/10/25 00:32:19;;;;;;;5.93;3.43;;;15.10;99.90;;;;;;5103912;28;20485;-72
2022/10/25 00:34:47;;;;;;;4.90;3.00;;;15.10;99.90;;;;;;5103166;28;20483;-72
2022/10/25 00:37:14;;;;;;;7.37;3.17;;;15.00;99.90;;;;;;5103807;28;20544;-71
2022/10/25 00:39:40;;;;;;;5.63;3.30;;;15.00;99.90;;;;;;5104728;28;20532;-71
2022/10/25 00:42:08;;;;;;;6.63;3.00;;;15.00;99.90;;;;;;5106447;28;20457;-71
2022/10/25 00:44:51;;;;;;;6.77;4.10;;;15.00;99.90;;;;;;5097693;28;20901;-68
2022/10/25 00:47:40;;;;;;;7.50;3.80;;;15.00;99.90;;;;;;5095029;28;20456;-69
2022/10/25 00:50:18;;;;;;;7.03;3.80;;;14.90;99.90;;;;;;5093407;28;20464;-69
2022/10/25 00:52:48;;;;;;;9.27;3.60;;;14.90;99.90;;;;;;5096757;28;20438;-69
2022/10/25 00:55:18;;;;;;;7.43;3.27;;;14.90;99.90;;;;;;5095424;28;20572;-69
2022/10/25 00:57:49;;;;;;;4.60;3.00;;;14.90;99.90;;;;;;5096301;28;20457;-69
2022/10/25 01:00:16;;;;;;;4.80;3.10;;;14.90;99.90;;;;;;5096782;28;20456;-70
2022/10/25 01:02:43;;;;;;;5.67;3.50;;;14.80;99.90;;;;;;5096718;28;20479;-70
2022/10/25 01:05:12;;;;;;;5.80;3.20;;;14.90;99.90;;;;;;5096647;28;20467;-70
2022/10/25 01:07:39;;;;;;;7.23;4.07;;;14.90;99.90;;;;;;5096529;28;20483;-69
2022/10/25 01:10:06;;;;;;;5.10;3.27;;;14.80;99.90;;;;;;5096582;28;20463;-69
2022/10/25 01:12:34;;;;;;;6.50;3.37;;;14.90;99.90;;;;;;5096539;28;20631;-69
2022/10/25 01:15:02;;;;;;;8.90;3.80;;;14.90;99.90;;;;;;5096026;28;20477;-68
2022/10/25 01:17:36;;;;;;;11.10;3.20;;;14.90;99.90;;;;;;5096079;28;20544;-69
2022/10/25 01:20:30;;;;;;;6.07;3.20;;;14.90;99.90;;;;;;5096358;28;20441;-69
2022/10/25 01:23:08;;;;;;;5.37;3.40;;;14.90;99.90;;;;;;5082002;28;20457;-69
2022/10/25 01:26:23;;;;;;;8.20;3.50;;;14.90;99.90;;;;;;5095996;28;20438;-68
2022/10/25 01:29:04;;;;;;;5.67;3.20;;;14.90;99.90;;;;;;5060322;28;20491;-69
2022/10/25 01:31:39;;;;;;;11.10;3.60;;;15.00;99.90;;;;;;5095594;28;20438;-68
2022/10/25 01:34:11;;;;;;;6.30;3.13;;;15.00;99.90;;;;;;5095868;28;20514;-69
2022/10/25 01:36:44;;;;;;;7.30;3.53;;;15.00;99.90;;;;;;5096075;28;20434;-69
2022/10/25 01:39:14;;;;;;;5.87;3.87;;;15.10;99.90;;;;;;5095639;28;20438;-69
2022/10/25 01:41:49;;;;;;;5.43;3.33;;;15.00;99.90;;;;;;5096495;28;20453;-69
2022/10/25 01:44:29;;;;;;;7.07;3.20;;;15.10;99.90;;;;;;5095536;28;20437;-69
2022/10/25 01:47:02;;;;;;;6.10;3.53;;;15.10;99.90;;;;;;5095763;28;20437;-69
2022/10/25 01:49:38;;;;;;;6.80;3.50;;;15.00;99.90;;;;;;5095512;28;20521;-68
2022/10/25 01:52:05;;;;;;;11.00;4.23;;;14.90;99.90;;;;;;5095646;28;20437;-68
2022/10/25 01:54:31;;;;;;;6.67;3.90;;;14.90;99.90;;;;;;5095262;28;20909;-69
2022/10/25 01:57:08;;;;;;;8.30;3.13;;;14.90;99.90;;;;;;5095212;28;20460;-69
2022/10/25 02:00:02;;;;;;;7.00;3.97;;;14.80;99.90;;;;;;5095576;28;20451;-69
2022/10/25 02:02:37;;;;;;;4.77;3.70;;;14.80;99.90;;;;;;5095314;28;20434;-69
2022/10/25 02:05:14;;;;;;;5.60;4.30;;;14.80;99.90;;;;;;5094951;28;20441;-69
2022/10/25 02:07:43;;;;;;;9.47;4.43;;;14.80;99.90;;;;;;5095190;28;20452;-69
2022/10/25 02:10:16;;;;;;;10.30;4.47;;;14.80;99.90;;;;;;5094834;28;20897;-69
2022/10/25 02:12:52;;;;;;;9.23;4.13;;;14.80;99.90;;;;;;5095018;28;20533;-68
2022/10/25 02:15:26;;;;;;;6.87;3.33;;;14.80;99.90;;;;;;5095436;28;20461;-69
2022/10/25 02:17:58;;;;;;;7.77;3.40;;;14.80;99.90;;;;;;5094944;28;20869;-69
2022/10/25 02:20:28;;;;;;;7.63;3.20;;;14.80;99.90;;;;;;5095207;28;20530;-69
2022/10/25 02:22:57;;;;;;;7.27;3.80;;;14.80;99.90;;;;;;5095130;28;20459;-69
2022/10/25 02:25:24;;;;;;;9.43;3.40;;;14.80;99.90;;;;;;5094653;28;20985;-69
2022/10/25 02:27:53;;;;;;;5.77;3.23;;;14.80;99.90;;;;;;5094776;28;20516;-69
2022/10/25 02:30:21;;;;;;;6.00;3.20;;;14.90;99.90;;;;;;5094957;28;20550;-69
2022/10/25 02:32:47;;;;;;;5.50;2.87;;;14.90;99.90;;;;;;5094903;28;20461;-69
2022/10/25 02:35:18;;;;;;;6.83;2.70;;;14.90;99.90;;;;;;5094692;28;20567;-70
2022/10/25 02:37:45;;;;;;;5.77;3.53;;;14.90;99.90;;;;;;5094438;28;20437;-69
2022/10/25 02:40:13;;;;;;;6.90;3.30;;;15.00;99.90;;;;;;5094900;28;20708;-69
2022/10/25 02:42:39;;;;;;;5.07;2.60;;;15.00;99.90;;;;;;5094997;28;20459;-69
2022/10/25 02:45:07;;;;;;;5.47;2.80;;;15.00;99.90;;;;;;5094794;28;20460;-68
2022/10/25 02:47:34;;;;;;;6.50;2.53;;;15.00;99.90;;;;;;5095187;28;20463;-69
2022/10/25 02:50:01;;;;;;;5.23;3.20;;;15.00;99.90;;;;;;5094855;28;20453;-69
2022/10/25 02:52:30;;;;;;;6.70;2.47;;;15.10;99.90;;;;;;5094338;28;20877;-69
2022/10/25 02:54:56;;;;;;;4.60;2.77;;;15.10;99.90;;;;;;5094404;28;20513;-69
2022/10/25 02:57:24;;;;;;;4.10;2.60;;;15.10;99.90;;;;;;5094155;28;20487;-70
2022/10/25 02:59:50;;;;;;;7.50;2.60;;;15.10;99.90;;;;;;5094439;28;20453;-69
2022/10/25 03:02:17;;;;;;;5.00;2.70;;;15.10;99.90;;;;;;5094382;28;20463;-69
2022/10/25 03:04:44;;;;;;;5.20;2.90;;;15.20;99.90;;;;;;5094788;28;20552;-69
2022/10/25 03:07:11;;;;;;;9.00;3.00;;;15.20;99.90;;;;;;5094369;28;20456;-69
2022/10/25 03:09:39;;;;;;;8.93;2.93;;;15.20;99.90;;;;;;5093841;28;20459;-69
2022/10/25 03:12:06;;;;;;;8.93;3.63;;;15.20;99.90;;;;;;5094415;28;20463;-69
2022/10/25 03:14:33;;;;;;;6.63;2.70;;;15.20;99.90;;;;;;5094272;28;20453;-69
2022/10/25 03:16:59;;;;;;;6.40;3.07;;;15.20;99.90;;;;;;5093889;28;20998;-69
2022/10/25 03:19:26;;;;;;;7.73;2.77;;;15.20;99.90;;;;;;5097731;28;20508;-69
2022/10/25 03:21:53;;;;;;;5.37;2.87;;;15.20;99.90;;;;;;5098148;28;20889;-69
2022/10/25 03:24:20;;;;;;;6.40;2.90;;;15.20;99.90;;;;;;5098358;28;20469;-69
2022/10/25 03:26:48;;;;;;;4.90;2.90;;;15.20;99.90;;;;;;5098102;28;20449;-69
2022/10/25 03:29:15;;;;;;;5.73;3.23;;;15.20;99.90;;;;;;5097948;28;21025;-69
2022/10/25 03:31:42;;;;;;;3.40;2.60;;;15.10;99.90;;;;;;5098315;28;20484;-69
2022/10/25 03:34:09;;;;;;;3.10;2.20;;;15.10;99.90;;;;;;5098169;28;20453;-69
2022/10/25 03:36:35;;;;;;;6.53;2.60;;;15.10;99.90;;;;;;5097763;28;21041;-68
2022/10/25 03:39:02;;;;;;;13.87;3.00;;;15.10;99.90;;;;;;5098136;28;20549;-69
2022/10/25 03:41:29;;;;;;;8.47;2.83;;;15.10;99.90;;;;;;5098155;28;20453;-69
2022/10/25 03:43:57;;;;;;;4.30;2.40;;;15.10;99.90;;;;;;5097991;28;20889;-69
2022/10/25 03:46:24;;;;;;;6.67;2.67;;;15.10;99.90;;;;;;5098455;28;20453;-69
2022/10/25 03:48:51;;;;;;;6.83;2.63;;;15.10;99.90;;;;;;5097839;28;20548;-69
2022/10/25 03:51:18;;;;;;;6.33;2.60;;;15.10;99.90;;;;;;5097646;28;20870;-69
2022/10/25 03:53:44;;;;;;;4.30;2.40;;;15.00;99.90;;;;;;5097871;28;20627;-69
2022/10/25 03:56:11;;;;;;;8.30;2.33;;;15.00;99.90;;;;;;5099482;28;20473;-69
2022/10/25 03:58:38;;;;;;;5.87;2.23;;;15.00;99.90;;;;;;5097680;28;20548;-69
2022/10/25 04:01:09;;;;;;;6.13;2.07;;;15.00;99.90;;;;;;5098083;28;20457;-68
2022/10/25 04:03:36;;;;;;;5.90;2.23;;;15.00;99.90;;;;;;5097337;28;20441;-69
2022/10/25 04:06:03;;;;;;;5.13;2.43;;;15.00;99.90;;;;;;5097692;28;20793;-69
2022/10/25 04:08:30;;;;;;;4.60;2.13;;;15.00;99.90;;;;;;5097673;28;20483;-69
2022/10/25 04:10:57;;;;;;;4.37;1.83;;;15.00;99.90;;;;;;5097443;28;20547;-69
2022/10/25 04:13:24;;;;;;;3.00;2.10;;;15.00;99.90;;;;;;5099357;28;20545;-69
2022/10/25 04:15:50;;;;;;;6.53;2.37;;;15.00;99.90;;;;;;5099098;28;20890;-69
2022/10/25 04:18:19;;;;;;;3.60;2.10;;;15.00;99.90;;;;;;5099677;28;20493;-69
2022/10/25 04:20:45;;;;;;;6.07;1.90;;;15.00;99.90;;;;;;5102721;28;20791;-70
2022/10/25 04:23:12;;;;;;;2.83;1.63;;;15.00;99.90;;;;;;5099239;28;20540;-69
2022/10/25 04:25:39;;;;;;;3.70;1.90;;;15.00;99.90;;;;;;5097915;28;20862;-69
2022/10/25 04:28:06;;;;;;;8.13;1.90;;;15.00;99.90;;;;;;5097128;28;20485;-70
2022/10/25 04:30:33;;;;;;;5.93;1.70;;;15.00;99.90;;;;;;5097135;28;20437;-71
2022/10/25 04:33:00;;;;;;;5.90;1.80;;;14.90;99.90;;;;;;5097044;28;20758;-69
2022/10/25 04:35:28;;;;;;;5.10;1.73;;;15.00;99.90;;;;;;5096892;28;20485;-69
2022/10/25 04:37:57;;;;;;;3.70;1.50;;;15.00;99.90;;;;;;5096987;28;20464;-70
2022/10/25 04:40:24;;;;;;;4.73;2.10;;;15.00;99.90;;;;;;5096671;28;20453;-70
2022/10/25 04:42:51;;;;;;;3.27;1.57;;;15.00;99.90;;;;;;5097069;28;20463;-69
2022/10/25 04:45:18;;;;;;;2.10;1.27;;;15.00;99.90;;;;;;5096772;28;20479;-70
2022/10/25 04:47:45;;;;;;;8.50;2.10;;;15.00;99.90;;;;;;5097166;28;20464;-70
2022/10/25 04:50:11;;;;;;;7.60;1.77;;;15.00;99.90;;;;;;5096756;28;20552;-69
2022/10/25 04:52:40;;;;;;;7.43;2.03;;;15.00;99.90;;;;;;5096870;28;20458;-68
2022/10/25 04:55:07;;;;;;;2.07;1.50;;;15.10;99.90;;;;;;5097006;28;20547;-69
2022/10/25 04:57:34;;;;;;;2.23;1.40;;;15.10;99.90;;;;;;5096609;28;20860;-69
2022/10/25 05:00:01;;;;;;;4.50;1.33;;;15.10;99.90;;;;;;5097107;28;20485;-70
2022/10/25 05:02:28;;;;;;;2.10;1.60;;;15.10;99.90;;;;;;5097578;28;20463;-70
2022/10/25 05:04:54;;;;;;;5.60;1.73;;;15.10;99.90;;;;;;5097575;28;20463;-69
2022/10/25 05:07:22;;;;;;;2.53;1.57;;;15.10;99.90;;;;;;5097367;28;20537;-69
2022/10/25 05:09:50;;;;;;;6.23;1.50;;;15.00;99.90;;;;;;5097588;28;20453;-69
2022/10/25 05:12:17;;;;;;;3.10;1.93;;;15.00;99.90;;;;;;5096441;28;20548;-69
2022/10/25 05:14:43;;;;;;;2.80;1.50;;;15.00;99.90;;;;;;5096444;28;20540;-69
2022/10/25 05:17:10;;;;;;;5.83;2.00;;;14.90;99.90;;;;;;5096333;28;20585;-69
2022/10/25 05:19:37;;;;;;;5.47;1.50;;;14.90;99.90;;;;;;5096387;28;20568;-69
2022/10/25 05:22:04;;;;;;;6.00;1.60;;;14.80;99.90;;;;;;5096253;28;20453;-69
2022/10/25 05:24:31;;;;;;;2.43;1.43;;;14.70;99.90;;;;;;5096199;28;20544;-69
2022/10/25 05:26:59;;;;;;;2.47;1.50;;;14.70;99.90;;;;;;5095739;28;20904;-69
2022/10/25 05:29:26;;;;;;;4.10;1.93;;;14.60;99.90;;;;;;5095944;28;20523;-69
2022/10/25 05:31:53;;;;;;;2.97;1.67;;;14.60;99.90;;;;;;5095811;28;20851;-69
2022/10/25 05:34:20;;;;;;;4.57;2.10;;;14.50;99.90;;;;;;5095874;28;20522;-69
2022/10/25 05:36:47;;;;;;;6.43;2.27;;;14.50;99.90;;;;;;5095420;28;20581;-69
2022/10/25 05:39:13;;;;;;;2.80;1.77;;;14.50;99.90;;;;;;5095490;28;20489;-69
2022/10/25 05:41:40;;;;;;;4.33;1.80;;;14.50;99.90;;;;;;5095083;28;20504;-69
2022/10/25 05:44:08;;;;;;;8.77;2.30;;;14.50;99.90;;;;;;5096013;28;20785;-69
2022/10/25 05:46:35;;;;;;;6.50;1.90;;;14.50;99.90;;;;;;5095530;28;20449;-69
2022/10/25 05:49:02;;;;;;;5.50;2.53;;;14.50;99.90;;;;;;5095612;28;20457;-69
2022/10/25 05:51:30;;;;;;;7.33;2.00;;;14.50;99.90;;;;;;5095157;28;20453;-70
2022/10/25 05:54:00;;;;;;;5.47;1.67;;;14.50;99.90;;;;;;5095586;28;20475;-69
2022/10/25 05:56:28;;;;;;;3.70;1.73;;;14.60;99.90;;;;;;5095117;28;20481;-69
2022/10/25 05:58:56;;;;;;;3.90;1.67;;;14.50;99.90;;;;;;5095123;28;20454;-69
2022/10/25 06:01:26;;;;;;;4.27;1.77;;;14.50;99.90;;;;;;5095051;28;20457;-69
2022/10/25 06:03:54;;;;;;;5.60;2.30;;;14.50;99.90;;;;;;5095175;28;20855;-69
2022/10/25 06:06:21;;;;;;;6.07;2.13;;;14.50;99.90;;;;;;5095463;28;20548;-69
2022/10/25 06:08:48;;;;;;;5.87;2.10;;;14.60;99.90;;;;;;5095291;28;20459;-69
2022/10/25 06:11:17;;;;;;;6.70;1.60;;;14.60;99.90;;;;;;5095331;28;20468;-69
2022/10/25 06:13:44;;;;;;;5.63;1.70;;;14.60;99.90;;;;;;5095132;28;20536;-69
2022/10/25 06:16:13;;;;;;;4.50;1.60;;;14.60;99.90;;;;;;5094934;28;20477;-69
2022/10/25 06:18:41;;;;;;;2.80;2.23;;;14.60;99.90;;;;;;5094811;28;20485;-70
2022/10/25 06:21:10;;;;;;;9.10;1.80;;;14.60;99.90;;;;;;5094275;28;20457;-69
2022/10/25 06:23:38;;;;;;;6.07;1.90;;;14.60;99.90;;;;;;5094519;28;20493;-70
2022/10/25 06:26:07;;;;;;;5.10;2.07;;;14.60;99.90;;;;;;5094668;28;20461;-69
2022/10/25 06:28:34;;;;;;;3.90;1.90;;;14.60;99.90;;;;;;5094485;28;20827;-70
2022/10/25 06:31:02;;;;;;;5.60;1.80;;;14.60;99.90;;;;;;5094625;28;20475;-69
2022/10/25 06:33:29;;;;;;;3.80;1.80;;;14.60;99.90;;;;;;5094514;28;20465;-69
2022/10/25 06:35:58;;;;;;;3.40;1.90;;;14.60;99.90;;;;;;5094852;28;20449;-69
2022/10/25 06:38:25;;;;;;;5.63;1.73;;;14.70;99.90;;;;;;5094736;28;20464;-69
2022/10/25 06:40:57;;;;;;;2.93;1.80;;;14.70;99.90;;;;;;5094489;28;20457;-69
2022/10/25 06:43:24;;;;;;;6.30;1.60;;;14.70;99.90;;;;;;5094214;28;20446;-69
2022/10/25 06:45:51;;;;;;;4.97;1.83;;;14.70;99.90;;;;;;5094606;28;20453;-69
2022/10/25 06:48:18;;;;;;;5.20;1.60;;;14.70;99.90;;;;;;5094029;28;20453;-69
2022/10/25 06:50:45;;;;;;;3.73;1.63;;;14.70;99.90;;;;;;5094677;28;20468;-69
2022/10/25 06:53:13;;;;;;;3.40;1.87;;;14.80;99.90;;;;;;5093624;28;20453;-70
2022/10/25 06:55:41;;;;;;;5.63;2.03;;;14.80;99.90;;;;;;5094568;28;20457;-68
2022/10/25 06:58:08;;;;;;;2.97;1.53;;;14.80;99.90;;;;;;5094541;28;20481;-71
2022/10/25 07:00:34;;;;;;;3.80;1.70;;;14.90;99.90;;;;;;5094561;28;20932;-70
2022/10/25 07:03:01;;;;;;;6.57;2.10;;;14.90;99.90;;;;;;5094588;28;20921;-69
2022/10/25 07:05:28;;;;;;;3.60;1.93;;;15.00;99.90;;;;;;5094158;28;20467;-69
2022/10/25 07:07:55;;;;;;;5.43;1.77;;;15.00;99.90;;;;;;5093970;28;20456;-70
2022/10/25 07:10:23;;;;;;;3.17;1.77;;;15.00;99.90;;;;;;5094199;28;20457;-70
2022/10/25 07:12:50;;;;;;;4.70;1.20;;;15.00;99.90;;;;;;5093571;28;20453;-69
2022/10/25 07:15:17;;;;;;;4.50;1.40;;;15.00;99.90;;;;;;5093993;28;20472;-69
2022/10/25 07:17:44;;;;;;;2.70;1.80;;;15.10;99.90;;;;;;5093466;28;20481;-69
2022/10/25 07:20:11;;;;;;;7.63;2.37;;;15.10;99.90;;;;;;5094095;28;20538;-70
2022/10/25 07:22:38;;;;;;;4.80;1.50;;;15.10;99.90;;;;;;5094120;28;20544;-69
2022/10/25 07:25:05;;;;;;;5.13;1.50;;;15.20;99.90;;;;;;5094128;28;20460;-70
2022/10/25 07:27:33;;;;;;;8.30;2.00;;;15.20;99.90;;;;;;5094372;28;20453;-70
2022/10/25 07:30:00;;;;;;;4.80;1.60;;;15.30;99.90;;;;;;5094719;28;20457;-71
2022/10/25 07:32:27;;;;;;;4.00;1.47;;;15.30;99.90;;;;;;5094217;28;20593;-71
2022/10/25 07:34:54;;;;;;;6.50;1.80;;;15.20;99.90;;;;;;5094013;28;20540;-70
2022/10/25 07:37:20;;;;;;;5.43;1.70;;;15.20;99.90;;;;;;5093915;28;20819;-70
2022/10/25 07:39:47;;;;;;;4.87;2.17;;;15.10;99.90;;;;;;5094101;28;20457;-69
2022/10/25 07:42:14;;;;;;;4.37;1.90;;;15.00;99.90;;;;;;5094592;28;20766;-71
2022/10/25 07:44:42;;;;;;;4.70;2.17;;;14.90;99.90;;;;;;5093736;28;20449;-70
2022/10/25 07:47:09;;;;;;;5.87;2.10;;;14.80;99.90;;;;;;5093595;28;20763;-70
2022/10/25 07:49:37;;;;;;;3.77;2.00;;;14.70;99.90;;;;;;5093865;28;20453;-70
2022/10/25 07:52:04;;;;;;;5.77;2.20;;;14.60;99.90;;;;;;5095598;28;20901;-70
2022/10/25 07:54:31;;;;;;;4.10;2.20;;;14.60;99.90;;;;;;5095663;28;20453;-70
2022/10/25 07:56:58;;;;;;;8.10;2.27;;;14.60;99.90;;;;;;5095124;28;20630;-69
2022/10/25 07:59:25;;;;;;;6.40;2.47;;;14.50;99.90;;;;;;5093899;28;20457;-69
2022/10/25 08:01:53;;;;;;;5.37;2.37;;;14.50;99.90;;;;;;5093635;28;20464;-70
2022/10/25 08:04:20;;;;;;;5.93;2.77;;;14.50;99.90;;;;;;5094682;28;20893;-69
2022/10/25 08:06:47;;;;;;;5.50;3.37;;;14.50;99.90;;;;;;5098203;28;20459;-69
2022/10/25 08:09:14;;;;;;;3.83;2.23;;;14.50;99.90;;;;;;5097248;28;20453;-70
2022/10/25 08:11:40;;;;;;;5.43;2.77;;;14.50;99.90;;;;;;5097465;28;20460;-69
2022/10/25 08:14:07;;;;;;;5.07;3.13;;;14.40;99.90;;;;;;5097495;28;20552;-71
2022/10/25 08:16:34;;;;;;;7.23;2.50;;;14.30;99.90;;;;;;5097325;28;20488;-70
2022/10/25 08:19:02;;;;;;;4.37;2.70;;;14.20;99.90;;;;;;5097149;28;20461;-68
2022/10/25 08:21:29;;;;;;;4.63;2.47;;;14.20;99.90;;;;;;5097964;28;20465;-69
2022/10/25 08:23:56;;;;;;;4.23;2.53;;;14.10;99.90;;;;;;5099296;28;20910;-70
2022/10/25 08:26:25;;;;;;;6.47;2.57;;;14.20;99.90;;;;;;5100603;28;20540;-71
2022/10/25 08:28:52;;;;;;;6.70;2.57;;;14.20;99.90;;;;;;5098931;28;20580;-69
2022/10/25 08:31:20;;;;;;;6.17;2.60;;;14.10;99.90;;;;;;5097228;28;20513;-69
2022/10/25 08:33:47;;;;;;;5.50;2.83;;;14.10;99.90;;;;;;5097039;28;20467;-70
2022/10/25 08:36:15;;;;;;;6.70;2.23;;;14.20;99.90;;;;;;5097453;28;20457;-70
2022/10/25 08:38:42;;;;;;;4.97;2.10;;;14.20;99.90;;;;;;5097240;28;20481;-69
2022/10/25 08:41:17;;;;;;;4.80;2.20;;;14.20;99.90;;;;;;5097031;28;20794;-69
2022/10/25 08:44:07;;;;;;;5.37;2.90;;;14.20;99.90;;;;;;5097302;28;20441;-69
2022/10/25 08:46:39;;;;;;;2.73;1.80;;;14.20;99.90;;;;;;5097268;28;20445;-70
2022/10/25 08:49:13;;;;;;;5.10;2.10;;;14.30;99.90;;;;;;5096709;28;20882;-71
2022/10/25 08:51:45;;;;;;;4.13;2.30;;;14.30;99.90;;;;;;5097260;28;20464;-70
2022/10/25 08:54:22;;;;;;;7.90;2.10;;;14.40;99.90;;;;;;5096893;28;20524;-68
2022/10/25 08:56:51;;;;;;;5.17;2.33;;;14.40;99.90;;;;;;5096980;28;20882;-69
2022/10/25 08:59:25;;;;;;;4.10;1.90;;;14.50;99.90;;;;;;5096714;28;20453;-69
2022/10/25 09:01:57;;;;;;;6.90;2.50;;;14.60;99.90;;;;;;5096487;28;20456;-69
2022/10/25 09:04:24;;;;;;;6.70;2.37;;;14.70;99.90;;;;;;5096527;28;20452;-70
2022/10/25 09:07:01;;;;;;;4.63;1.90;;;14.80;99.90;;;;;;5096658;28;20453;-69
2022/10/25 09:09:34;;;;;;;3.40;1.70;;;14.90;99.90;;;;;;5096837;28;20524;-69
2022/10/25 09:12:12;;;;;;;8.30;2.03;;;15.00;99.90;;;;;;5096538;28;20833;-69
2022/10/25 09:14:46;;;;;;;2.70;1.90;;;15.10;99.90;;;;;;5096268;28;20460;-69
2022/10/25 09:17:19;;;;;;;3.63;1.90;;;15.20;99.90;;;;;;5095236;28;20556;-69
2022/10/25 09:19:59;;;;;;;6.83;2.10;;;15.30;99.90;;;;;;5096704;28;20501;-69
2022/10/25 09:22:29;;;;;;;6.17;1.80;;;15.30;99.90;;;;;;5096256;28;20540;-69
2022/10/25 09:25:00;;;;;;;8.90;2.00;;;15.30;99.90;;;;;;5096619;28;20838;-68
2022/10/25 09:27:35;;;;;;;5.80;2.47;;;15.40;99.90;;;;;;5096056;28;20870;-69
2022/10/25 09:30:05;;;;;;;2.90;1.87;;;15.50;99.90;;;;;;5096599;28;20437;-68
2022/10/25 09:32:38;;;;;;;5.00;1.80;;;15.50;99.90;;;;;;5096399;28;20524;-69
2022/10/25 09:35:07;;;;;;;9.10;2.30;;;15.60;99.90;;;;;;5096336;28;20832;-69
2022/10/25 09:37:41;;;;;;;5.03;2.20;;;15.60;99.90;;;;;;5096290;28;21024;-71
2022/10/25 09:40:14;;;;;;;6.90;1.60;;;15.60;99.90;;;;;;5096443;28;20457;-70
2022/10/25 09:42:46;;;;;;;5.60;1.93;;;15.70;99.90;;;;;;5096831;28;20452;-71
2022/10/25 09:45:21;;;;;;;4.10;2.20;;;15.70;99.90;;;;;;5096301;28;20460;-70
2022/10/25 09:47:53;;;;;;;6.00;2.23;;;15.80;99.90;;;;;;5095527;28;20869;-70
2022/10/25 09:50:26;;;;;;;4.20;1.90;;;15.80;99.90;;;;;;5095749;28;20448;-70
2022/10/25 09:53:07;;;;;;;9.83;2.20;;;15.90;99.90;;;;;;5095935;28;20459;-70
2022/10/25 09:55:40;;;;;;;7.87;2.37;;;16.00;99.90;;;;;;5095393;28;20528;-70
2022/10/25 09:58:15;;;;;;;4.30;2.13;;;16.00;99.90;;;;;;5095397;28;20953;-70
2022/10/25 10:00:41;;;;;;;6.77;2.37;;;16.00;99.90;;;;;;5095757;28;20451;-70
2022/10/25 10:03:11;;;;;;;3.83;2.00;;;16.00;99.90;;;;;;5095375;28;20472;-69
2022/10/25 10:05:39;;;;;;;5.47;2.87;;;15.90;99.90;;;;;;5094815;28;20833;-69
2022/10/25 10:08:09;;;;;;;3.23;2.10;;;15.90;99.90;;;;;;5095041;28;20514;-69
2022/10/25 10:10:37;;;;;;;6.10;2.40;;;15.90;99.90;;;;;;5094977;28;20552;-70
2022/10/25 10:13:12;;;;;;;4.60;2.43;;;15.90;99.90;;;;;;5094842;28;20548;-69
2022/10/25 10:15:49;;;;;;;6.43;2.20;;;16.00;99.90;;;;;;5095362;28;20515;-69
2022/10/25 10:18:25;;;;;;;6.87;2.50;;;15.90;99.90;;;;;;5095031;28;20949;-70
2022/10/25 10:21:13;;;;;;;5.90;2.20;;;16.00;99.90;;;;;;5095019;28;20448;-70
2022/10/25 10:23:50;;;;;;;5.90;2.40;;;16.00;99.90;;;;;;5095182;28;20499;-71
2022/10/25 10:26:23;;;;;;;10.47;2.30;;;15.90;99.90;;;;;;5095205;28;20453;-71
2022/10/25 10:28:51;;;;;;;5.30;2.30;;;15.90;99.90;;;;;;5094580;28;20946;-70
2022/10/25 10:31:19;;;;;;;3.57;2.17;;;15.90;99.90;;;;;;5094780;28;20468;-69
2022/10/25 10:33:50;;;;;;;3.83;2.20;;;15.90;99.90;;;;;;5094319;28;20469;-69
2022/10/25 10:36:23;;;;;;;12.03;3.70;;;15.90;99.90;;;;;;5094477;28;20940;-69
2022/10/25 10:38:51;;;;;;;5.37;2.53;;;15.80;99.90;;;;;;5094629;28;20487;-70
2022/10/25 10:41:24;;;;;;;12.77;3.90;;;15.80;99.90;;;;;;5094638;28;20540;-70
2022/10/25 10:43:51;;;;;;;4.87;3.33;;;15.80;99.90;;;;;;5094592;28;20452;-70
2022/10/25 10:46:22;;;;;;;6.67;2.97;;;15.90;99.90;;;;;;5095330;28;20457;-71
2022/10/25 10:48:54;;;;;;;4.40;2.80;;;16.00;99.90;;;;;;5094646;28;20774;-71
2022/10/25 10:51:35;;;;;;;16.47;3.10;;;16.10;99.90;;;;;;5094629;28;20747;-70
2022/10/25 10:54:24;;;;;;;6.93;3.00;;;16.20;99.90;;;;;;5094575;28;20443;-70
2022/10/25 10:56:59;;;;;;;8.07;3.07;;;16.30;99.90;;;;;;5094596;28;20452;-70
2022/10/25 10:59:35;;;;;;;7.47;2.90;;;16.30;99.90;;;;;;5094378;28;20475;-69
2022/10/25 11:02:23;;;;;;;5.93;2.40;;;16.30;99.90;;;;;;5094013;28;20445;-70
2022/10/25 11:04:51;;;;;;;6.87;2.93;;;16.30;99.90;;;;;;5094301;28;20921;-70
2022/10/25 11:07:27;;;;;;;6.90;2.43;;;16.40;99.90;;;;;;5094247;28;20464;-70
2022/10/25 11:10:18;;;;;;;7.43;2.63;;;16.50;99.90;;;;;;5094230;28;20452;-71
2022/10/25 11:12:45;;;;;;;8.10;3.80;;;16.60;99.90;;;;;;5094716;28;20451;-71
2022/10/25 11:15:13;;;;;;;4.23;2.70;;;16.70;99.90;;;;;;5094019;28;20453;-71
2022/10/25 11:17:45;;;;;;;7.20;3.00;;;16.90;99.90;;;;;;5094129;28;20481;-71
2022/10/25 11:20:24;;;;;;;9.13;3.27;;;17.00;99.90;;;;;;5094006;28;20480;-70
2022/10/25 11:22:58;;;;;;;5.33;2.93;;;17.10;99.90;;;;;;5094513;28;20528;-70
2022/10/25 11:25:37;;;;;;;6.27;2.63;;;17.20;99.90;;;;;;5093882;28;20874;-71
2022/10/25 11:28:23;;;;;;;6.73;2.90;;;17.30;99.90;;;;;;5093541;28;20481;-71
2022/10/25 11:31:01;;;;;;;6.00;3.40;;;17.40;99.90;;;;;;5094921;28;20441;-70
2022/10/25 11:33:44;;;;;;;6.83;2.80;;;17.40;99.90;;;;;;5097192;28;20463;-70
2022/10/25 11:36:42;;;;;;;7.63;2.47;;;17.40;99.90;;;;;;5097116;28;20516;-70
2022/10/25 11:39:30;;;;;;;6.57;2.57;;;17.30;99.90;;;;;;5095243;28;20505;-71
2022/10/25 11:42:05;;;;;;;5.30;3.03;;;17.20;99.90;;;;;;5100280;28;20719;-71
2022/10/25 11:44:48;;;;;;;5.10;2.67;;;17.10;99.90;;;;;;5100614;28;20476;-71
2022/10/25 11:47:26;;;;;;;5.93;2.60;;;17.10;99.90;;;;;;5100224;28;20517;-70
2022/10/25 11:50:11;;;;;;;6.20;2.50;;;17.10;99.90;;;;;;5100383;28;20447;-71
2022/10/25 11:52:58;;;;;;;3.10;2.37;;;17.00;99.90;;;;;;5100087;28;20452;-71
2022/10/25 11:55:34;;;;;;;6.30;2.43;;;17.00;99.90;;;;;;5098669;28;20441;-71
2022/10/25 11:58:15;;;;;;;4.73;2.27;;;17.20;99.90;;;;;;5097407;28;20497;-70
2022/10/25 12:00:53;;;;;;;5.70;2.60;;;17.40;99.90;;;;;;5097668;28;20442;-70
2022/10/25 12:03:32;;;;;;;4.00;2.57;;;17.60;99.90;;;;;;5097062;28;20907;-70
2022/10/25 12:06:09;;;;;;;5.83;3.17;;;17.80;99.90;;;;;;5097404;28;20451;-70
2022/10/25 12:08:43;;;;;;;12.63;3.33;;;17.80;99.90;;;;;;5097694;28;20893;-70
2022/10/25 12:11:14;;;;;;;5.97;2.47;;;18.20;99.90;;;;;;5097609;28;20452;-70
2022/10/25 12:13:47;;;;;;;4.13;2.60;;;18.40;99.90;;;;;;5097690;28;20441;-70
2022/10/25 12:16:16;;;;;;;4.57;2.20;;;18.40;99.90;;;;;;5098247;28;20508;-70
2022/10/25 12:18:46;;;;;;;5.67;2.50;;;18.70;99.90;;;;;;5097453;28;20477;-70
2022/10/25 12:21:20;;;;;;;5.53;2.10;;;19.00;99.90;;;;;;5097761;28;20807;-70
2022/10/25 12:23:50;;;;;;;5.00;2.40;;;18.80;99.90;;;;;;5097534;28;20524;-70
2022/10/25 12:26:25;;;;;;;5.40;2.30;;;18.50;99.90;;;;;;5098223;28;20483;-70
2022/10/25 12:28:53;;;;;;;4.23;2.30;;;18.20;99.90;;;;;;5096899;28;20481;-70
2022/10/25 12:31:25;;;;;;;6.70;2.40;;;18.00;99.90;;;;;;5097517;28;20453;-71
2022/10/25 12:33:56;;;;;;;6.03;2.80;;;17.90;99.90;;;;;;5097379;28;20524;-71
2022/10/25 12:36:30;;;;;;;5.93;2.67;;;18.00;99.90;;;;;;5097054;28;20532;-70
2022/10/25 12:39:01;;;;;;;4.63;2.50;;;18.00;99.90;;;;;;5097055;28;20475;-69
2022/10/25 12:41:32;;;;;;;4.40;2.23;;;18.20;99.90;;;;;;5097374;28;20441;-69
2022/10/25 12:44:23;;;;;;;8.93;2.33;;;18.50;99.90;;;;;;5096966;28;20446;-70
2022/10/25 12:47:07;;;;;;;8.40;2.97;;;18.50;99.90;;;;;;5097110;28;20524;-71
2022/10/25 12:50:22;;;;;;;10.30;2.40;;;18.20;99.90;;;;;;5097767;28;20438;-70
2022/10/25 12:53:16;;;;;;;3.70;2.10;;;18.10;99.90;;;;;;5073205;28;20491;-70
2022/10/25 12:55:53;;;;;;;3.50;1.97;;;17.90;99.90;;;;;;5096942;28;20437;-70
2022/10/25 12:58:32;;;;;;;4.87;2.40;;;17.90;99.90;;;;;;5096839;28;20508;-69
2022/10/25 13:01:22;;;;;;;5.67;2.10;;;18.30;99.90;;;;;;5096880;28;20441;-69
2022/10/25 13:04:04;;;;;;;4.77;2.37;;;18.40;99.90;;;;;;5096805;28;20456;-70